createdAt,value
2022-12-26T00:02:36.432Z,96897.94
2022-12-26T00:06:36.888Z,96900.72
2022-12-26T00:10:36.932Z,96915.81
2022-12-26T00:14:37.076Z,96918.94
2022-12-26T00:18:39.990Z,96919.63
2022-12-26T00:22:40.039Z,96902.38
2022-12-26T00:26:40.713Z,96926.22
2022-12-26T00:30:41.214Z,96926.06
2022-12-26T00:34:44.005Z,96937.00
2022-12-26T00:38:45.957Z,96887.31
2022-12-26T00:42:46.176Z,96941.91
2022-12-26T00:46:46.302Z,96934.41
2022-12-26T00:50:49.076Z,96945.06
2022-12-26T00:54:49.150Z,96944.88
2022-12-26T00:58:49.216Z,96937.00
2022-12-26T01:02:49.545Z,96942.47
2022-12-26T01:06:52.398Z,96940.84
2022-12-26T01:10:52.746Z,96947.47
2022-12-26T01:14:52.792Z,96950.63
2022-12-26T01:18:52.863Z,96944.81
2022-12-26T01:22:55.567Z,96909.00
2022-12-26T01:26:55.626Z,96937.16
2022-12-26T01:30:55.757Z,96939.19
2022-12-26T01:34:56.417Z,96946.50
2022-12-26T01:38:59.142Z,96949.22
2022-12-26T01:43:00.440Z,96949.91
2022-12-26T01:47:01.346Z,96949.38
2022-12-26T01:51:06.890Z,96946.84
2022-12-26T01:55:14.841Z,96945.84
2022-12-26T01:59:20.730Z,96933.44
2022-12-26T02:03:33.639Z,96931.28
2022-12-26T02:07:37.366Z,96937.78
2022-12-26T02:11:45.812Z,96946.75
2022-12-26T02:15:47.428Z,96945.88
2022-12-26T02:20:00.745Z,96947.47
2022-12-26T02:24:33.489Z,96934.75
2022-12-26T02:29:06.898Z,96937.34
2022-12-26T02:33:51.508Z,96923.63
2022-12-26T02:38:11.000Z,96903.16
2022-12-26T02:42:31.409Z,96914.22
2022-12-26T02:46:54.813Z,96915.72
2022-12-26T02:51:26.360Z,96918.56
2022-12-26T02:55:44.915Z,96923.31
2022-12-26T03:00:09.495Z,96919.13
2022-12-26T03:04:29.337Z,96917.19
2022-12-26T03:09:02.826Z,96914.34
2022-12-26T03:13:13.628Z,96911.31
2022-12-26T03:17:27.121Z,96914.22
2022-12-26T03:21:33.609Z,96920.91
2022-12-26T03:25:58.069Z,96905.59
2022-12-26T03:30:11.216Z,96918.31
2022-12-26T03:34:20.489Z,96916.06
2022-12-26T03:38:29.102Z,96916.88
2022-12-26T03:42:57.026Z,96921.72
2022-12-26T03:47:28.866Z,96919.25
2022-12-26T03:51:53.474Z,96924.13
2022-12-26T03:56:14.413Z,96919.09
2022-12-26T04:00:45.943Z,96942.47
2022-12-26T04:05:01.489Z,96944.25
2022-12-26T04:09:26.253Z,96930.91
2022-12-26T04:13:45.776Z,96932.97
2022-12-26T04:18:17.656Z,96933.28
2022-12-26T04:22:42.952Z,96932.16
2022-12-26T04:27:00.831Z,96924.28
2022-12-26T04:31:24.649Z,96929.81
2022-12-26T04:35:50.058Z,96929.75
2022-12-26T04:40:08.980Z,96932.50
2022-12-26T04:44:12.015Z,96932.50
2022-12-26T04:48:26.283Z,96937.91
2022-12-26T04:52:49.090Z,96939.41
2022-12-26T04:56:49.250Z,96932.16
2022-12-26T05:00:49.312Z,96924.19
2022-12-26T05:05:02.074Z,96867.25
2022-12-26T05:09:17.230Z,96932.91
2022-12-26T05:13:17.375Z,96935.06
2022-12-26T05:17:30.263Z,96938.28
2022-12-26T05:21:42.909Z,96927.09
2022-12-26T05:26:01.342Z,96930.25
2022-12-26T05:30:01.630Z,96932.41
2022-12-26T05:34:12.290Z,96916.69
2022-12-26T05:38:13.690Z,96929.81
2022-12-26T05:42:16.432Z,96937.41
2022-12-26T05:46:16.679Z,96942.72
2022-12-26T05:50:16.943Z,96939.75
2022-12-26T05:54:16.989Z,96937.00
2022-12-26T05:58:19.786Z,96931.69
2022-12-26T06:02:20.041Z,96930.16
2022-12-26T06:06:22.339Z,96923.31
2022-12-26T06:10:22.543Z,96917.53
2022-12-26T06:14:25.706Z,96912.91
2022-12-26T06:18:25.897Z,96904.09
2022-12-26T06:22:26.233Z,96908.38
2022-12-26T06:26:26.371Z,96892.50
2022-12-26T06:30:29.127Z,96893.22
2022-12-26T06:34:29.285Z,96868.94
2022-12-26T06:38:29.508Z,96902.16
2022-12-26T06:42:29.565Z,96907.75
2022-12-26T06:46:32.374Z,96898.56
2022-12-26T06:50:32.530Z,96885.63
2022-12-26T06:54:33.370Z,96906.81
2022-12-26T06:58:33.452Z,96904.00
2022-12-26T07:02:36.209Z,96912.22
2022-12-26T07:06:39.347Z,96911.66
2022-12-26T07:10:40.166Z,96907.78
2022-12-26T07:14:40.426Z,96936.69
2022-12-26T07:18:44.641Z,96908.41
2022-12-26T07:22:44.916Z,96912.84
2022-12-26T07:26:45.559Z,96911.66
2022-12-26T07:30:50.206Z,96923.72
2022-12-26T07:34:53.262Z,96929.44
2022-12-26T07:38:53.396Z,96934.38
2022-12-26T07:42:56.800Z,96927.53
2022-12-26T07:46:58.140Z,96934.06
2022-12-26T07:51:04.903Z,96942.69
2022-12-26T07:55:05.044Z,96903.56
2022-12-26T07:59:05.301Z,96941.72
2022-12-26T08:03:08.037Z,96963.28
2022-12-26T08:07:11.270Z,96947.34
2022-12-26T08:11:18.154Z,96956.91
2022-12-26T08:15:18.466Z,96953.69
2022-12-26T08:19:18.725Z,96952.19
2022-12-26T08:23:21.791Z,96923.72
2022-12-26T08:27:21.945Z,96969.69
2022-12-26T08:35:44.169Z,96970.69
2022-12-26T08:39:47.504Z,96974.50
2022-12-26T08:48:11.862Z,96976.41
2022-12-26T08:52:12.032Z,96967.66
2022-12-26T08:56:18.293Z,96962.31
2022-12-26T09:00:23.971Z,96905.28
2022-12-26T09:04:25.290Z,96956.78
2022-12-26T09:08:25.381Z,96953.88
2022-12-26T09:12:28.496Z,96934.06
2022-12-26T09:16:37.793Z,96946.97
2022-12-26T09:20:39.392Z,96963.56
2022-12-26T09:24:39.692Z,96977.22
2022-12-26T09:28:43.151Z,96969.97
2022-12-26T09:32:44.310Z,96998.34
2022-12-26T09:36:44.438Z,97000.53
2022-12-26T09:41:05.409Z,96977.53
2022-12-26T09:45:17.016Z,96960.44
2022-12-26T09:49:22.971Z,96976.25
2022-12-26T09:53:34.645Z,96991.22
2022-12-26T09:57:45.303Z,96975.41
2022-12-26T10:01:49.232Z,96981.84
2022-12-26T10:06:09.594Z,96953.50
2022-12-26T10:10:14.824Z,96942.22
2022-12-26T10:14:25.458Z,96941.72
2022-12-26T10:18:41.791Z,96951.31
2022-12-26T10:23:19.448Z,96947.03
2022-12-26T10:27:23.153Z,96954.47
2022-12-26T10:31:31.221Z,96963.53
2022-12-26T10:35:40.384Z,96972.81
2022-12-26T10:39:49.175Z,96988.13
2022-12-26T10:43:49.357Z,96985.66
2022-12-26T10:47:53.567Z,96984.00
2022-12-26T10:51:59.671Z,96986.38
2022-12-26T10:56:03.463Z,96946.72
2022-12-26T11:00:05.545Z,97015.31
2022-12-26T11:04:08.855Z,97001.53
2022-12-26T11:08:22.663Z,97030.72
2022-12-26T11:12:30.001Z,97025.31
2022-12-26T11:16:34.449Z,97031.84
2022-12-26T11:20:35.107Z,96978.84
2022-12-26T11:24:37.881Z,97035.72
2022-12-26T11:28:40.093Z,97030.34
2022-12-26T11:32:40.543Z,97031.66
2022-12-26T11:36:50.930Z,97040.91
2022-12-26T11:41:13.684Z,97024.84
2022-12-26T11:45:15.421Z,97030.94
2022-12-26T11:49:33.733Z,97020.34
2022-12-26T11:53:34.959Z,96996.22
2022-12-26T11:57:37.706Z,96997.50
2022-12-26T12:01:37.929Z,96978.28
2022-12-26T12:05:53.608Z,97008.81
2022-12-26T12:10:02.596Z,96971.56
2022-12-26T12:14:35.795Z,96989.41
2022-12-26T12:18:54.245Z,96964.28
2022-12-26T12:23:21.921Z,96994.91
2022-12-26T12:27:32.398Z,96984.50
2022-12-26T12:31:52.249Z,96979.91
2022-12-26T12:36:09.018Z,96980.47
2022-12-26T12:40:31.842Z,96985.28
2022-12-26T12:44:55.706Z,96983.81
2022-12-26T12:49:37.533Z,96977.31
2022-12-26T12:54:29.459Z,96990.03
2022-12-26T12:58:41.883Z,96986.19
2022-12-26T13:02:48.518Z,96964.81
2022-12-26T13:06:57.877Z,96981.34
2022-12-26T13:11:05.845Z,96975.81
2022-12-26T13:15:20.855Z,96971.66
2022-12-26T13:19:25.952Z,96981.28
2022-12-26T13:23:50.950Z,96980.31
2022-12-26T13:27:56.171Z,96977.66
2022-12-26T13:31:56.496Z,97001.50
2022-12-26T13:36:01.624Z,97004.91
2022-12-26T13:40:09.787Z,96993.00
2022-12-26T13:44:28.682Z,96983.84
2022-12-26T13:49:04.567Z,96980.97
2022-12-26T13:53:06.592Z,96989.53
2022-12-26T13:57:40.295Z,96999.41
2022-12-26T14:01:56.293Z,96991.63
2022-12-26T14:06:25.680Z,97019.19
2022-12-26T14:10:40.485Z,97007.53
2022-12-26T14:15:03.556Z,97009.13
2022-12-26T14:19:19.930Z,97009.81
2022-12-26T14:23:46.977Z,97006.69
2022-12-26T14:27:54.861Z,97012.97
2022-12-26T14:32:31.340Z,97015.22
2022-12-26T14:36:45.441Z,97001.88
2022-12-26T14:41:04.719Z,96997.09
2022-12-26T14:45:12.638Z,97003.59
2022-12-26T14:49:39.250Z,97003.03
2022-12-26T14:53:41.168Z,96962.38
2022-12-26T14:57:51.926Z,96975.16
2022-12-26T15:02:11.368Z,97005.59
2022-12-26T15:06:59.224Z,96975.38
2022-12-26T15:12:04.944Z,97000.38
2022-12-26T15:16:49.621Z,96998.97
2022-12-26T15:21:31.882Z,96974.44
2022-12-26T15:26:11.742Z,97020.25
2022-12-26T15:30:23.754Z,97012.00
2022-12-26T15:34:57.307Z,96992.72
2022-12-26T15:39:08.691Z,97010.03
2022-12-26T15:43:44.769Z,97008.28
2022-12-26T15:47:57.325Z,97013.03
2022-12-26T15:52:13.512Z,97022.72
2022-12-26T15:56:52.071Z,97019.22
2022-12-26T16:00:55.453Z,96975.22
2022-12-26T16:05:01.354Z,97027.72
2022-12-26T16:09:30.229Z,97017.31
2022-12-26T16:13:34.067Z,97016.59
2022-12-26T16:17:34.724Z,97020.63
2022-12-26T16:21:47.420Z,97024.88
2022-12-26T16:25:51.291Z,97038.81
2022-12-26T16:30:00.184Z,97029.63
2022-12-26T16:34:02.632Z,97043.03
2022-12-26T16:38:06.733Z,97039.75
2022-12-26T16:42:10.233Z,97037.22
2022-12-26T16:46:18.340Z,97031.56
2022-12-26T16:50:22.477Z,97022.81
2022-12-26T16:54:33.181Z,97037.31
2022-12-26T16:58:39.607Z,97034.13
2022-12-26T17:02:50.263Z,97046.59
2022-12-26T17:06:55.602Z,97056.78
2022-12-26T17:10:56.490Z,97021.00
2022-12-26T17:14:59.762Z,97021.44
2022-12-26T17:19:20.578Z,97000.53
2022-12-26T17:23:39.951Z,96999.28
2022-12-26T17:27:40.073Z,97018.72
2022-12-26T17:31:44.423Z,96996.63
2022-12-26T17:40:29.316Z,96986.06
2022-12-26T17:44:42.493Z,96995.53
2022-12-26T17:48:43.213Z,96992.66
2022-12-26T17:52:46.119Z,97002.78
2022-12-26T17:56:46.175Z,97007.09
2022-12-26T18:00:48.055Z,97015.56
2022-12-26T18:04:48.985Z,97003.38
2022-12-26T18:08:51.772Z,97015.69
2022-12-26T18:12:52.656Z,97019.97
2022-12-26T18:16:55.015Z,97015.78
2022-12-26T18:20:55.664Z,97007.00
2022-12-26T18:24:58.438Z,97036.00
2022-12-26T18:28:59.114Z,97006.06
2022-12-26T18:32:59.261Z,97010.47
2022-12-26T18:36:59.300Z,97010.22
2022-12-26T18:41:02.485Z,97019.53
2022-12-26T18:45:02.574Z,97013.34
2022-12-26T18:49:02.722Z,96991.19
2022-12-26T18:53:02.870Z,96989.13
2022-12-26T18:57:06.862Z,96991.25
2022-12-26T19:01:07.644Z,97014.63
2022-12-26T19:05:10.075Z,96988.16
2022-12-26T19:09:11.623Z,96986.19
2022-12-26T19:13:15.341Z,96986.44
2022-12-26T19:17:15.609Z,96968.06
2022-12-26T19:21:16.939Z,96994.97
2022-12-26T19:25:18.922Z,96990.16
2022-12-26T19:29:21.667Z,96989.19
2022-12-26T19:33:22.383Z,96989.94
2022-12-26T19:37:22.602Z,96950.97
2022-12-26T19:41:23.210Z,97027.66
2022-12-26T19:45:26.055Z,97010.81
2022-12-26T19:49:31.882Z,97058.81
2022-12-26T19:53:34.014Z,97087.75
2022-12-26T19:57:34.785Z,97110.28
2022-12-26T20:01:37.701Z,97071.16
2022-12-26T20:05:41.384Z,97025.97
2022-12-26T20:09:41.801Z,97084.75
2022-12-26T20:13:42.708Z,97106.28
2022-12-26T20:17:45.420Z,97131.75
2022-12-26T20:21:45.536Z,97153.19
2022-12-26T20:25:46.923Z,97144.09
2022-12-26T20:29:47.396Z,97143.38
2022-12-26T20:33:54.059Z,97139.28
2022-12-26T20:37:54.679Z,97166.63
2022-12-26T20:41:54.833Z,97178.47
2022-12-26T20:45:55.703Z,97158.34
2022-12-26T20:49:58.428Z,97161.47
2022-12-26T20:53:58.587Z,97168.63
2022-12-26T20:57:58.656Z,97147.41
2022-12-26T21:01:58.850Z,97150.53
2022-12-26T21:06:09.754Z,97152.25
2022-12-26T21:10:12.916Z,97158.09
2022-12-26T21:14:17.998Z,97165.97
2022-12-26T21:18:18.081Z,97182.81
2022-12-26T21:22:20.774Z,97127.78
2022-12-26T21:26:20.794Z,97183.38
2022-12-26T21:30:20.960Z,97156.59
2022-12-26T21:34:24.524Z,97176.28
2022-12-26T21:38:32.346Z,97194.03
2022-12-26T21:42:32.483Z,97205.97
2022-12-26T21:46:32.649Z,97191.28
2022-12-26T21:50:32.827Z,97217.25
2022-12-26T21:54:49.397Z,97221.44
2022-12-26T21:59:07.819Z,97218.16
2022-12-26T22:03:20.956Z,97193.19
2022-12-26T22:07:21.066Z,97230.34
2022-12-26T22:11:36.205Z,97239.13
2022-12-26T22:15:49.267Z,97235.16
2022-12-26T22:19:49.400Z,97230.56
2022-12-26T22:23:51.445Z,97248.38
2022-12-26T22:27:54.197Z,97266.22
2022-12-26T22:31:58.391Z,97259.22
2022-12-26T22:36:05.618Z,97270.41
2022-12-26T22:40:05.995Z,97267.63
2022-12-26T22:44:08.820Z,97269.03
2022-12-26T22:48:09.418Z,97274.84
2022-12-26T22:52:15.507Z,97285.91
2022-12-26T22:56:16.486Z,97286.34
2022-12-26T23:00:19.937Z,97283.59
2022-12-26T23:04:20.737Z,97263.97
2022-12-26T23:08:25.291Z,97297.22
2022-12-26T23:12:38.809Z,97324.25
2022-12-26T23:16:53.144Z,97292.50
2022-12-26T23:21:07.547Z,97296.22
2022-12-26T23:25:08.629Z,97292.41
2022-12-26T23:29:21.334Z,97322.09
2022-12-26T23:33:24.007Z,97333.16
2022-12-26T23:37:24.066Z,97327.63
2022-12-26T23:41:24.137Z,97340.13
2022-12-26T23:45:24.242Z,97330.75
2022-12-26T23:49:26.965Z,97356.47
2022-12-26T23:53:27.018Z,97375.72
2022-12-26T23:57:27.221Z,97385.56
